sensor_id;sensor_type;location;lat;lon;timestamp;P1;durP1;ratioP1;P2;durP2;ratioP2
51838;SDS011;37886;53.174;6.368;2023-04-20T00:01:36;13.00;;;7.70;;
51838;SDS011;37886;53.174;6.368;2023-04-20T00:04:02;11.75;;;7.68;;
51838;SDS011;37886;53.174;6.368;2023-04-20T00:06:28;17.15;;;7.88;;
51838;SDS011;37886;53.174;6.368;2023-04-20T00:08:55;11.57;;;7.55;;
51838;SDS011;37886;53.174;6.368;2023-04-20T00:11:21;8.35;;;7.03;;
51838;SDS011;37886;53.174;6.368;2023-04-20T00:13:46;12.18;;;7.22;;
51838;SDS011;37886;53.174;6.368;2023-04-20T00:16:12;14.93;;;7.22;;
51838;SDS011;37886;53.174;6.368;2023-04-20T00:18:37;9.27;;;6.68;;
51838;SDS011;37886;53.174;6.368;2023-04-20T00:21:04;9.88;;;7.20;;
51838;SDS011;37886;53.174;6.368;2023-04-20T00:23:30;9.20;;;7.32;;
51838;SDS011;37886;53.174;6.368;2023-04-20T00:25:56;16.92;;;6.93;;
51838;SDS011;37886;53.174;6.368;2023-04-20T00:28:21;14.63;;;7.40;;
51838;SDS011;37886;53.174;6.368;2023-04-20T00:30:47;10.85;;;7.20;;
51838;SDS011;37886;53.174;6.368;2023-04-20T00:33:13;11.95;;;6.82;;
51838;SDS011;37886;53.174;6.368;2023-04-20T00:35:38;8.65;;;6.10;;
51838;SDS011;37886;53.174;6.368;2023-04-20T00:38:04;9.68;;;6.40;;
51838;SDS011;37886;53.174;6.368;2023-04-20T00:40:30;8.70;;;6.45;;
51838;SDS011;37886;53.174;6.368;2023-04-20T00:42:56;10.52;;;6.10;;
51838;SDS011;37886;53.174;6.368;2023-04-20T00:45:21;15.27;;;6.57;;
51838;SDS011;37886;53.174;6.368;2023-04-20T00:47:47;8.63;;;6.45;;
51838;SDS011;37886;53.174;6.368;2023-04-20T00:50:13;10.27;;;6.60;;
51838;SDS011;37886;53.174;6.368;2023-04-20T00:52:40;12.38;;;6.50;;
51838;SDS011;37886;53.174;6.368;2023-04-20T00:55:06;13.40;;;6.30;;
51838;SDS011;37886;53.174;6.368;2023-04-20T00:57:32;9.80;;;6.85;;
51838;SDS011;37886;53.174;6.368;2023-04-20T00:59:58;9.60;;;6.97;;
51838;SDS011;37886;53.174;6.368;2023-04-20T01:02:25;16.35;;;6.25;;
51838;SDS011;37886;53.174;6.368;2023-04-20T01:04:51;12.55;;;6.18;;
51838;SDS011;37886;53.174;6.368;2023-04-20T01:07:18;7.63;;;6.07;;
51838;SDS011;37886;53.174;6.368;2023-04-20T01:09:44;12.35;;;6.55;;
51838;SDS011;37886;53.174;6.368;2023-04-20T01:12:10;7.60;;;5.57;;
51838;SDS011;37886;53.174;6.368;2023-04-20T01:14:36;6.65;;;5.97;;
51838;SDS011;37886;53.174;6.368;2023-04-20T01:17:01;7.93;;;5.85;;
51838;SDS011;37886;53.174;6.368;2023-04-20T01:19:28;6.82;;;5.70;;
51838;SDS011;37886;53.174;6.368;2023-04-20T01:21:54;8.15;;;5.93;;
51838;SDS011;37886;53.174;6.368;2023-04-20T01:24:19;9.98;;;6.03;;
51838;SDS011;37886;53.174;6.368;2023-04-20T01:26:45;11.27;;;6.63;;
51838;SDS011;37886;53.174;6.368;2023-04-20T01:29:11;8.23;;;6.57;;
51838;SDS011;37886;53.174;6.368;2023-04-20T01:31:37;7.35;;;5.57;;
51838;SDS011;37886;53.174;6.368;2023-04-20T01:34:02;7.78;;;6.15;;
51838;SDS011;37886;53.174;6.368;2023-04-20T01:36:28;11.23;;;5.95;;
51838;SDS011;37886;53.174;6.368;2023-04-20T01:38:54;14.13;;;6.85;;
51838;SDS011;37886;53.174;6.368;2023-04-20T01:41:21;13.43;;;5.75;;
51838;SDS011;37886;53.174;6.368;2023-04-20T01:43:47;10.52;;;6.13;;
51838;SDS011;37886;53.174;6.368;2023-04-20T01:46:12;12.60;;;6.00;;
51838;SDS011;37886;53.174;6.368;2023-04-20T01:48:38;8.45;;;5.88;;
51838;SDS011;37886;53.174;6.368;2023-04-20T01:51:04;9.65;;;5.88;;
51838;SDS011;37886;53.174;6.368;2023-04-20T01:53:30;9.15;;;6.65;;
51838;SDS011;37886;53.174;6.368;2023-04-20T01:55:55;11.55;;;6.13;;
51838;SDS011;37886;53.174;6.368;2023-04-20T01:58:21;8.13;;;5.95;;
51838;SDS011;37886;53.174;6.368;2023-04-20T02:00:47;13.82;;;6.38;;
51838;SDS011;37886;53.174;6.368;2023-04-20T02:03:13;12.07;;;5.57;;
51838;SDS011;37886;53.174;6.368;2023-04-20T02:05:38;11.13;;;6.13;;
51838;SDS011;37886;53.174;6.368;2023-04-20T02:08:04;12.95;;;6.72;;
51838;SDS011;37886;53.174;6.368;2023-04-20T02:10:30;14.32;;;6.63;;
51838;SDS011;37886;53.174;6.368;2023-04-20T02:12:55;9.65;;;6.18;;
51838;SDS011;37886;53.174;6.368;2023-04-20T02:15:21;9.70;;;6.65;;
51838;SDS011;37886;53.174;6.368;2023-04-20T02:17:47;11.13;;;6.28;;
51838;SDS011;37886;53.174;6.368;2023-04-20T02:20:16;13.75;;;7.07;;
51838;SDS011;37886;53.174;6.368;2023-04-20T02:22:45;12.75;;;6.47;;
51838;SDS011;37886;53.174;6.368;2023-04-20T02:25:12;13.15;;;6.72;;
51838;SDS011;37886;53.174;6.368;2023-04-20T02:27:38;11.48;;;6.20;;
51838;SDS011;37886;53.174;6.368;2023-04-20T02:30:04;11.10;;;6.60;;
51838;SDS011;37886;53.174;6.368;2023-04-20T02:32:30;10.15;;;6.55;;
51838;SDS011;37886;53.174;6.368;2023-04-20T02:34:57;14.98;;;6.88;;
51838;SDS011;37886;53.174;6.368;2023-04-20T02:37:22;16.85;;;6.82;;
51838;SDS011;37886;53.174;6.368;2023-04-20T02:39:48;15.25;;;6.57;;
51838;SDS011;37886;53.174;6.368;2023-04-20T02:42:14;14.68;;;7.05;;
51838;SDS011;37886;53.174;6.368;2023-04-20T02:44:39;14.55;;;7.95;;
51838;SDS011;37886;53.174;6.368;2023-04-20T02:47:05;16.20;;;6.78;;
51838;SDS011;37886;53.174;6.368;2023-04-20T02:49:31;18.20;;;6.30;;
51838;SDS011;37886;53.174;6.368;2023-04-20T02:51:56;8.55;;;6.50;;
51838;SDS011;37886;53.174;6.368;2023-04-20T02:54:22;14.85;;;7.00;;
51838;SDS011;37886;53.174;6.368;2023-04-20T02:56:48;20.50;;;7.60;;
51838;SDS011;37886;53.174;6.368;2023-04-20T02:59:13;15.23;;;6.88;;
51838;SDS011;37886;53.174;6.368;2023-04-20T03:01:39;11.85;;;7.28;;
51838;SDS011;37886;53.174;6.368;2023-04-20T03:04:05;9.52;;;6.57;;
51838;SDS011;37886;53.174;6.368;2023-04-20T03:06:30;8.60;;;6.43;;
51838;SDS011;37886;53.174;6.368;2023-04-20T03:08:56;13.65;;;7.13;;
51838;SDS011;37886;53.174;6.368;2023-04-20T03:11:22;14.30;;;7.07;;
51838;SDS011;37886;53.174;6.368;2023-04-20T03:13:48;17.60;;;7.72;;
51838;SDS011;37886;53.174;6.368;2023-04-20T03:16:13;14.48;;;6.93;;
51838;SDS011;37886;53.174;6.368;2023-04-20T03:18:39;15.43;;;6.97;;
51838;SDS011;37886;53.174;6.368;2023-04-20T03:21:05;11.55;;;6.78;;
51838;SDS011;37886;53.174;6.368;2023-04-20T03:23:30;16.00;;;7.28;;
51838;SDS011;37886;53.174;6.368;2023-04-20T03:25:56;12.20;;;6.80;;
51838;SDS011;37886;53.174;6.368;2023-04-20T03:28:22;13.68;;;7.53;;
51838;SDS011;37886;53.174;6.368;2023-04-20T03:30:47;12.00;;;7.22;;
51838;SDS011;37886;53.174;6.368;2023-04-20T03:33:13;15.15;;;7.53;;
51838;SDS011;37886;53.174;6.368;2023-04-20T03:35:39;13.13;;;7.28;;
51838;SDS011;37886;53.174;6.368;2023-04-20T03:38:07;14.45;;;7.25;;
51838;SDS011;37886;53.174;6.368;2023-04-20T03:40:32;16.10;;;7.60;;
51838;SDS011;37886;53.174;6.368;2023-04-20T03:42:58;11.82;;;7.25;;
51838;SDS011;37886;53.174;6.368;2023-04-20T03:45:24;11.38;;;6.50;;
51838;SDS011;37886;53.174;6.368;2023-04-20T03:47:49;9.05;;;6.47;;
51838;SDS011;37886;53.174;6.368;2023-04-20T03:50:15;12.50;;;6.53;;
51838;SDS011;37886;53.174;6.368;2023-04-20T03:52:41;19.00;;;8.25;;
51838;SDS011;37886;53.174;6.368;2023-04-20T03:55:07;11.05;;;6.88;;
51838;SDS011;37886;53.174;6.368;2023-04-20T03:57:33;10.07;;;6.25;;
51838;SDS011;37886;53.174;6.368;2023-04-20T03:59:59;10.55;;;6.65;;
51838;SDS011;37886;53.174;6.368;2023-04-20T04:02:24;10.00;;;6.50;;
51838;SDS011;37886;53.174;6.368;2023-04-20T04:04:50;13.95;;;7.35;;
51838;SDS011;37886;53.174;6.368;2023-04-20T04:07:16;11.93;;;6.30;;
51838;SDS011;37886;53.174;6.368;2023-04-20T04:09:41;9.13;;;6.50;;
51838;SDS011;37886;53.174;6.368;2023-04-20T04:12:07;9.77;;;6.22;;
51838;SDS011;37886;53.174;6.368;2023-04-20T04:14:33;9.68;;;5.70;;
51838;SDS011;37886;53.174;6.368;2023-04-20T04:16:59;7.45;;;6.18;;
51838;SDS011;37886;53.174;6.368;2023-04-20T04:19:25;11.43;;;6.57;;
51838;SDS011;37886;53.174;6.368;2023-04-20T04:21:50;14.18;;;6.32;;
51838;SDS011;37886;53.174;6.368;2023-04-20T04:24:16;8.93;;;6.13;;
51838;SDS011;37886;53.174;6.368;2023-04-20T04:26:42;8.68;;;6.10;;
51838;SDS011;37886;53.174;6.368;2023-04-20T04:29:08;8.75;;;5.90;;
51838;SDS011;37886;53.174;6.368;2023-04-20T04:31:34;7.28;;;5.90;;
51838;SDS011;37886;53.174;6.368;2023-04-20T04:34:00;6.88;;;6.15;;
51838;SDS011;37886;53.174;6.368;2023-04-20T04:36:26;9.20;;;6.15;;
51838;SDS011;37886;53.174;6.368;2023-04-20T04:38:52;8.75;;;5.88;;
51838;SDS011;37886;53.174;6.368;2023-04-20T04:41:17;9.80;;;6.03;;
51838;SDS011;37886;53.174;6.368;2023-04-20T04:43:44;7.53;;;5.70;;
51838;SDS011;37886;53.174;6.368;2023-04-20T04:46:11;8.10;;;5.75;;
51838;SDS011;37886;53.174;6.368;2023-04-20T04:48:38;7.05;;;5.38;;
51838;SDS011;37886;53.174;6.368;2023-04-20T04:51:06;8.95;;;5.95;;
51838;SDS011;37886;53.174;6.368;2023-04-20T04:53:33;7.68;;;5.40;;
51838;SDS011;37886;53.174;6.368;2023-04-20T04:55:58;8.23;;;5.68;;
51838;SDS011;37886;53.174;6.368;2023-04-20T04:58:24;6.70;;;5.53;;
51838;SDS011;37886;53.174;6.368;2023-04-20T05:00:50;9.00;;;6.07;;
51838;SDS011;37886;53.174;6.368;2023-04-20T05:03:16;7.18;;;5.63;;
51838;SDS011;37886;53.174;6.368;2023-04-20T05:05:41;13.25;;;6.07;;
51838;SDS011;37886;53.174;6.368;2023-04-20T05:08:07;7.10;;;6.07;;
51838;SDS011;37886;53.174;6.368;2023-04-20T05:10:33;9.65;;;6.28;;
51838;SDS011;37886;53.174;6.368;2023-04-20T05:12:59;9.48;;;5.43;;
51838;SDS011;37886;53.174;6.368;2023-04-20T05:15:25;10.23;;;5.68;;
51838;SDS011;37886;53.174;6.368;2023-04-20T05:17:51;7.43;;;5.68;;
51838;SDS011;37886;53.174;6.368;2023-04-20T05:20:17;11.77;;;5.60;;
51838;SDS011;37886;53.174;6.368;2023-04-20T05:22:43;6.82;;;5.07;;
51838;SDS011;37886;53.174;6.368;2023-04-20T05:25:09;7.80;;;5.53;;
51838;SDS011;37886;53.174;6.368;2023-04-20T05:27:35;13.20;;;6.00;;
51838;SDS011;37886;53.174;6.368;2023-04-20T05:30:01;10.48;;;6.00;;
51838;SDS011;37886;53.174;6.368;2023-04-20T05:32:28;8.30;;;5.60;;
51838;SDS011;37886;53.174;6.368;2023-04-20T05:34:53;10.38;;;6.07;;
51838;SDS011;37886;53.174;6.368;2023-04-20T05:37:19;8.80;;;5.78;;
51838;SDS011;37886;53.174;6.368;2023-04-20T05:39:45;6.95;;;5.68;;
51838;SDS011;37886;53.174;6.368;2023-04-20T05:42:10;10.20;;;6.47;;
51838;SDS011;37886;53.174;6.368;2023-04-20T05:44:36;9.48;;;6.13;;
51838;SDS011;37886;53.174;6.368;2023-04-20T05:47:03;7.93;;;6.38;;
51838;SDS011;37886;53.174;6.368;2023-04-20T05:49:33;11.18;;;6.60;;
51838;SDS011;37886;53.174;6.368;2023-04-20T05:51:59;13.93;;;6.70;;
51838;SDS011;37886;53.174;6.368;2023-04-20T05:54:25;7.55;;;6.70;;
51838;SDS011;37886;53.174;6.368;2023-04-20T05:56:52;11.68;;;6.93;;
51838;SDS011;37886;53.174;6.368;2023-04-20T05:59:19;8.85;;;6.47;;
51838;SDS011;37886;53.174;6.368;2023-04-20T06:01:45;10.88;;;6.57;;
51838;SDS011;37886;53.174;6.368;2023-04-20T06:04:11;13.05;;;6.00;;
51838;SDS011;37886;53.174;6.368;2023-04-20T06:06:37;8.00;;;6.55;;
51838;SDS011;37886;53.174;6.368;2023-04-20T06:09:02;11.63;;;6.53;;
51838;SDS011;37886;53.174;6.368;2023-04-20T06:11:29;10.57;;;7.18;;
51838;SDS011;37886;53.174;6.368;2023-04-20T06:13:55;10.05;;;5.75;;
51838;SDS011;37886;53.174;6.368;2023-04-20T06:16:21;11.73;;;6.35;;
51838;SDS011;37886;53.174;6.368;2023-04-20T06:18:47;14.52;;;6.30;;
51838;SDS011;37886;53.174;6.368;2023-04-20T06:21:13;8.40;;;5.68;;
51838;SDS011;37886;53.174;6.368;2023-04-20T06:23:40;9.02;;;6.07;;
51838;SDS011;37886;53.174;6.368;2023-04-20T06:26:06;7.68;;;5.68;;
51838;SDS011;37886;53.174;6.368;2023-04-20T06:28:33;9.50;;;5.97;;
51838;SDS011;37886;53.174;6.368;2023-04-20T06:31:00;6.10;;;5.35;;
51838;SDS011;37886;53.174;6.368;2023-04-20T06:33:30;11.95;;;6.82;;
51838;SDS011;37886;53.174;6.368;2023-04-20T06:35:55;9.70;;;6.20;;
51838;SDS011;37886;53.174;6.368;2023-04-20T06:38:21;13.07;;;8.07;;
51838;SDS011;37886;53.174;6.368;2023-04-20T06:40:48;8.65;;;6.60;;
51838;SDS011;37886;53.174;6.368;2023-04-20T06:43:13;7.88;;;6.32;;
51838;SDS011;37886;53.174;6.368;2023-04-20T06:45:39;8.68;;;6.20;;
51838;SDS011;37886;53.174;6.368;2023-04-20T06:48:05;9.13;;;6.60;;
51838;SDS011;37886;53.174;6.368;2023-04-20T06:50:31;9.25;;;6.38;;
51838;SDS011;37886;53.174;6.368;2023-04-20T06:52:57;13.02;;;6.80;;
51838;SDS011;37886;53.174;6.368;2023-04-20T06:55:22;12.68;;;6.68;;
51838;SDS011;37886;53.174;6.368;2023-04-20T06:57:48;8.18;;;6.35;;
51838;SDS011;37886;53.174;6.368;2023-04-20T07:00:14;11.27;;;7.22;;
51838;SDS011;37886;53.174;6.368;2023-04-20T07:02:44;14.95;;;6.85;;
51838;SDS011;37886;53.174;6.368;2023-04-20T07:07:37;8.25;;;6.50;;
51838;SDS011;37886;53.174;6.368;2023-04-20T07:10:04;10.48;;;7.05;;
51838;SDS011;37886;53.174;6.368;2023-04-20T07:12:34;12.67;;;6.73;;
51838;SDS011;37886;53.174;6.368;2023-04-20T07:15:04;10.85;;;6.85;;
51838;SDS011;37886;53.174;6.368;2023-04-20T07:19:57;8.40;;;6.93;;
51838;SDS011;37886;53.174;6.368;2023-04-20T07:22:30;15.73;;;7.15;;
51838;SDS011;37886;53.174;6.368;2023-04-20T07:24:55;8.32;;;7.38;;
51838;SDS011;37886;53.174;6.368;2023-04-20T07:27:21;12.02;;;7.45;;
51838;SDS011;37886;53.174;6.368;2023-04-20T07:29:47;8.75;;;7.68;;
51838;SDS011;37886;53.174;6.368;2023-04-20T07:32:12;14.07;;;7.80;;
51838;SDS011;37886;53.174;6.368;2023-04-20T07:34:38;16.10;;;7.75;;
51838;SDS011;37886;53.174;6.368;2023-04-20T07:37:04;10.57;;;6.80;;
51838;SDS011;37886;53.174;6.368;2023-04-20T07:39:30;11.50;;;7.13;;
51838;SDS011;37886;53.174;6.368;2023-04-20T07:41:56;9.90;;;7.05;;
51838;SDS011;37886;53.174;6.368;2023-04-20T07:44:21;12.80;;;6.40;;
51838;SDS011;37886;53.174;6.368;2023-04-20T07:46:47;11.15;;;7.00;;
51838;SDS011;37886;53.174;6.368;2023-04-20T07:49:13;13.02;;;7.85;;
51838;SDS011;37886;53.174;6.368;2023-04-20T07:51:39;10.95;;;6.85;;
51838;SDS011;37886;53.174;6.368;2023-04-20T07:54:05;12.82;;;7.78;;
51838;SDS011;37886;53.174;6.368;2023-04-20T07:56:32;21.20;;;8.13;;
51838;SDS011;37886;53.174;6.368;2023-04-20T07:58:58;11.40;;;7.40;;
51838;SDS011;37886;53.174;6.368;2023-04-20T08:01:23;11.48;;;7.80;;
51838;SDS011;37886;53.174;6.368;2023-04-20T08:03:50;13.07;;;7.40;;
51838;SDS011;37886;53.174;6.368;2023-04-20T08:06:16;14.85;;;7.18;;
51838;SDS011;37886;53.174;6.368;2023-04-20T08:08:41;8.57;;;7.65;;
51838;SDS011;37886;53.174;6.368;2023-04-20T08:11:07;11.75;;;7.93;;
51838;SDS011;37886;53.174;6.368;2023-04-20T08:13:34;9.90;;;8.32;;
51838;SDS011;37886;53.174;6.368;2023-04-20T08:16:00;9.80;;;7.75;;
51838;SDS011;37886;53.174;6.368;2023-04-20T08:18:26;15.23;;;7.57;;
51838;SDS011;37886;53.174;6.368;2023-04-20T08:20:52;11.55;;;7.57;;
51838;SDS011;37886;53.174;6.368;2023-04-20T08:23:17;8.00;;;7.20;;
51838;SDS011;37886;53.174;6.368;2023-04-20T08:25:43;8.32;;;7.53;;
51838;SDS011;37886;53.174;6.368;2023-04-20T08:28:08;12.48;;;7.18;;
51838;SDS011;37886;53.174;6.368;2023-04-20T08:30:34;12.07;;;7.35;;
51838;SDS011;37886;53.174;6.368;2023-04-20T08:33:01;9.20;;;8.07;;
51838;SDS011;37886;53.174;6.368;2023-04-20T08:35:27;10.30;;;7.40;;
51838;SDS011;37886;53.174;6.368;2023-04-20T08:37:52;10.45;;;7.95;;
51838;SDS011;37886;53.174;6.368;2023-04-20T08:40:18;10.45;;;7.72;;
51838;SDS011;37886;53.174;6.368;2023-04-20T08:42:44;13.32;;;7.80;;
51838;SDS011;37886;53.174;6.368;2023-04-20T08:45:11;8.63;;;7.18;;
51838;SDS011;37886;53.174;6.368;2023-04-20T08:47:37;11.95;;;7.75;;
51838;SDS011;37886;53.174;6.368;2023-04-20T08:50:04;12.35;;;8.23;;
51838;SDS011;37886;53.174;6.368;2023-04-20T08:52:31;13.23;;;8.35;;
51838;SDS011;37886;53.174;6.368;2023-04-20T08:54:59;18.50;;;8.05;;
51838;SDS011;37886;53.174;6.368;2023-04-20T08:57:25;8.90;;;8.00;;
51838;SDS011;37886;53.174;6.368;2023-04-20T08:59:51;11.70;;;8.35;;
51838;SDS011;37886;53.174;6.368;2023-04-20T09:02:17;10.05;;;7.60;;
51838;SDS011;37886;53.174;6.368;2023-04-20T09:04:43;14.65;;;8.75;;
51838;SDS011;37886;53.174;6.368;2023-04-20T09:07:19;11.27;;;7.80;;
51838;SDS011;37886;53.174;6.368;2023-04-20T09:09:52;10.93;;;8.60;;
51838;SDS011;37886;53.174;6.368;2023-04-20T09:12:19;10.18;;;7.90;;
51838;SDS011;37886;53.174;6.368;2023-04-20T09:14:46;8.93;;;8.07;;
51838;SDS011;37886;53.174;6.368;2023-04-20T09:17:15;10.60;;;8.77;;
51838;SDS011;37886;53.174;6.368;2023-04-20T09:19:50;12.05;;;8.75;;
51838;SDS011;37886;53.174;6.368;2023-04-20T09:22:27;9.25;;;8.45;;
51838;SDS011;37886;53.174;6.368;2023-04-20T09:24:57;14.98;;;8.63;;
51838;SDS011;37886;53.174;6.368;2023-04-20T09:27:23;15.25;;;8.50;;
51838;SDS011;37886;53.174;6.368;2023-04-20T09:29:57;13.82;;;8.60;;
51838;SDS011;37886;53.174;6.368;2023-04-20T09:32:24;16.88;;;9.05;;
51838;SDS011;37886;53.174;6.368;2023-04-20T09:34:52;9.05;;;8.05;;
51838;SDS011;37886;53.174;6.368;2023-04-20T09:37:17;10.38;;;8.23;;
51838;SDS011;37886;53.174;6.368;2023-04-20T09:39:44;15.05;;;8.93;;
51838;SDS011;37886;53.174;6.368;2023-04-20T09:42:10;10.68;;;8.43;;
51838;SDS011;37886;53.174;6.368;2023-04-20T09:44:38;13.15;;;8.07;;
51838;SDS011;37886;53.174;6.368;2023-04-20T09:47:05;9.52;;;8.50;;
51838;SDS011;37886;53.174;6.368;2023-04-20T09:49:32;12.45;;;9.13;;
51838;SDS011;37886;53.174;6.368;2023-04-20T09:52:02;11.15;;;8.80;;
51838;SDS011;37886;53.174;6.368;2023-04-20T09:54:28;11.67;;;8.70;;
51838;SDS011;37886;53.174;6.368;2023-04-20T09:56:57;16.38;;;10.05;;
51838;SDS011;37886;53.174;6.368;2023-04-20T09:59:23;11.45;;;10.15;;
51838;SDS011;37886;53.174;6.368;2023-04-20T10:01:51;13.43;;;8.55;;
51838;SDS011;37886;53.174;6.368;2023-04-20T10:04:17;13.38;;;8.73;;
51838;SDS011;37886;53.174;6.368;2023-04-20T10:06:53;10.02;;;8.73;;
51838;SDS011;37886;53.174;6.368;2023-04-20T10:09:20;10.35;;;8.75;;
51838;SDS011;37886;53.174;6.368;2023-04-20T10:11:48;10.25;;;9.07;;
51838;SDS011;37886;53.174;6.368;2023-04-20T10:14:15;11.63;;;9.27;;
51838;SDS011;37886;53.174;6.368;2023-04-20T10:16:42;11.18;;;8.70;;
51838;SDS011;37886;53.174;6.368;2023-04-20T10:19:09;12.27;;;9.23;;
51838;SDS011;37886;53.174;6.368;2023-04-20T10:21:44;11.85;;;8.55;;
51838;SDS011;37886;53.174;6.368;2023-04-20T10:24:14;10.30;;;8.45;;
51838;SDS011;37886;53.174;6.368;2023-04-20T10:26:44;12.38;;;8.82;;
51838;SDS011;37886;53.174;6.368;2023-04-20T10:29:10;10.38;;;8.50;;
51838;SDS011;37886;53.174;6.368;2023-04-20T10:31:48;13.80;;;9.05;;
51838;SDS011;37886;53.174;6.368;2023-04-20T10:34:14;9.07;;;8.13;;
51838;SDS011;37886;53.174;6.368;2023-04-20T10:36:40;10.98;;;8.65;;
51838;SDS011;37886;53.174;6.368;2023-04-20T10:39:17;9.82;;;8.65;;
51838;SDS011;37886;53.174;6.368;2023-04-20T10:41:53;10.55;;;8.40;;
51838;SDS011;37886;53.174;6.368;2023-04-20T10:44:22;10.82;;;9.23;;
51838;SDS011;37886;53.174;6.368;2023-04-20T10:46:49;12.82;;;9.38;;
51838;SDS011;37886;53.174;6.368;2023-04-20T10:49:15;10.95;;;9.15;;
51838;SDS011;37886;53.174;6.368;2023-04-20T10:51:48;10.90;;;8.25;;
51838;SDS011;37886;53.174;6.368;2023-04-20T10:54:15;11.23;;;9.15;;
51838;SDS011;37886;53.174;6.368;2023-04-20T10:59:12;14.60;;;9.75;;
51838;SDS011;37886;53.174;6.368;2023-04-20T11:01:49;9.98;;;8.98;;
51838;SDS011;37886;53.174;6.368;2023-04-20T11:04:15;11.90;;;10.43;;
51838;SDS011;37886;53.174;6.368;2023-04-20T11:06:42;11.18;;;9.90;;
51838;SDS011;37886;53.174;6.368;2023-04-20T11:11:45;12.73;;;9.45;;
51838;SDS011;37886;53.174;6.368;2023-04-20T11:14:21;12.95;;;9.90;;
51838;SDS011;37886;53.174;6.368;2023-04-20T11:16:51;18.88;;;9.38;;
51838;SDS011;37886;53.174;6.368;2023-04-20T11:19:27;12.32;;;9.10;;
51838;SDS011;37886;53.174;6.368;2023-04-20T11:21:54;13.55;;;9.95;;
51838;SDS011;37886;53.174;6.368;2023-04-20T11:24:21;12.40;;;9.50;;
51838;SDS011;37886;53.174;6.368;2023-04-20T11:26:51;14.52;;;9.48;;
51838;SDS011;37886;53.174;6.368;2023-04-20T11:32:01;12.70;;;9.70;;
51838;SDS011;37886;53.174;6.368;2023-04-20T11:34:28;13.23;;;10.70;;
51838;SDS011;37886;53.174;6.368;2023-04-20T11:36:54;14.68;;;10.85;;
51838;SDS011;37886;53.174;6.368;2023-04-20T11:39:25;15.73;;;10.25;;
51838;SDS011;37886;53.174;6.368;2023-04-20T11:41:52;10.70;;;9.45;;
51838;SDS011;37886;53.174;6.368;2023-04-20T11:44:21;12.95;;;10.27;;
51838;SDS011;37886;53.174;6.368;2023-04-20T11:46:48;10.45;;;9.30;;
51838;SDS011;37886;53.174;6.368;2023-04-20T11:49:17;16.25;;;9.60;;
51838;SDS011;37886;53.174;6.368;2023-04-20T11:51:44;12.13;;;10.03;;
51838;SDS011;37886;53.174;6.368;2023-04-20T11:54:11;11.77;;;10.57;;
51838;SDS011;37886;53.174;6.368;2023-04-20T11:56:40;11.40;;;10.27;;
51838;SDS011;37886;53.174;6.368;2023-04-20T11:59:06;14.35;;;11.50;;
51838;SDS011;37886;53.174;6.368;2023-04-20T12:01:33;12.07;;;9.90;;
51838;SDS011;37886;53.174;6.368;2023-04-20T12:03:59;14.40;;;10.68;;
51838;SDS011;37886;53.174;6.368;2023-04-20T12:06:28;16.98;;;11.07;;
51838;SDS011;37886;53.174;6.368;2023-04-20T12:08:55;12.43;;;10.98;;
51838;SDS011;37886;53.174;6.368;2023-04-20T12:11:21;13.85;;;11.45;;
51838;SDS011;37886;53.174;6.368;2023-04-20T12:13:47;14.95;;;10.73;;
51838;SDS011;37886;53.174;6.368;2023-04-20T12:16:13;13.77;;;10.95;;
51838;SDS011;37886;53.174;6.368;2023-04-20T12:18:38;14.93;;;11.35;;
51838;SDS011;37886;53.174;6.368;2023-04-20T12:21:05;18.42;;;12.63;;
51838;SDS011;37886;53.174;6.368;2023-04-20T12:23:31;15.02;;;12.13;;
51838;SDS011;37886;53.174;6.368;2023-04-20T12:25:57;16.17;;;12.43;;
51838;SDS011;37886;53.174;6.368;2023-04-20T12:28:23;13.77;;;11.95;;
51838;SDS011;37886;53.174;6.368;2023-04-20T12:30:49;18.08;;;12.48;;
51838;SDS011;37886;53.174;6.368;2023-04-20T12:33:15;15.52;;;12.50;;
51838;SDS011;37886;53.174;6.368;2023-04-20T12:35:41;19.05;;;12.98;;
51838;SDS011;37886;53.174;6.368;2023-04-20T12:38:07;14.20;;;12.70;;
51838;SDS011;37886;53.174;6.368;2023-04-20T12:40:33;14.27;;;12.30;;
51838;SDS011;37886;53.174;6.368;2023-04-20T12:42:59;16.55;;;12.68;;
51838;SDS011;37886;53.174;6.368;2023-04-20T12:45:25;16.90;;;13.30;;
51838;SDS011;37886;53.174;6.368;2023-04-20T12:47:51;16.50;;;13.07;;
51838;SDS011;37886;53.174;6.368;2023-04-20T12:50:16;15.68;;;12.40;;
51838;SDS011;37886;53.174;6.368;2023-04-20T12:52:42;15.68;;;12.60;;
51838;SDS011;37886;53.174;6.368;2023-04-20T12:55:08;14.45;;;12.27;;
51838;SDS011;37886;53.174;6.368;2023-04-20T12:57:33;13.38;;;11.60;;
51838;SDS011;37886;53.174;6.368;2023-04-20T12:59:59;16.00;;;11.60;;
51838;SDS011;37886;53.174;6.368;2023-04-20T13:02:30;13.95;;;12.40;;
51838;SDS011;37886;53.174;6.368;2023-04-20T13:04:56;15.38;;;12.23;;
51838;SDS011;37886;53.174;6.368;2023-04-20T13:07:22;17.83;;;12.38;;
51838;SDS011;37886;53.174;6.368;2023-04-20T13:09:49;13.05;;;11.35;;
51838;SDS011;37886;53.174;6.368;2023-04-20T13:12:14;12.88;;;11.35;;
51838;SDS011;37886;53.174;6.368;2023-04-20T13:14:40;13.15;;;11.45;;
51838;SDS011;37886;53.174;6.368;2023-04-20T13:17:06;12.93;;;11.63;;
51838;SDS011;37886;53.174;6.368;2023-04-20T13:19:32;13.80;;;11.23;;
51838;SDS011;37886;53.174;6.368;2023-04-20T13:21:57;12.07;;;10.85;;
51838;SDS011;37886;53.174;6.368;2023-04-20T13:24:23;12.73;;;11.05;;
51838;SDS011;37886;53.174;6.368;2023-04-20T13:26:52;12.05;;;10.25;;
51838;SDS011;37886;53.174;6.368;2023-04-20T13:29:22;14.50;;;10.75;;
51838;SDS011;37886;53.174;6.368;2023-04-20T13:31:49;12.00;;;10.82;;
51838;SDS011;37886;53.174;6.368;2023-04-20T13:34:15;12.27;;;11.00;;
51838;SDS011;37886;53.174;6.368;2023-04-20T13:36:41;11.55;;;10.30;;
51838;SDS011;37886;53.174;6.368;2023-04-20T13:39:07;12.70;;;11.40;;
51838;SDS011;37886;53.174;6.368;2023-04-20T13:41:34;11.93;;;10.70;;
51838;SDS011;37886;53.174;6.368;2023-04-20T13:44:01;12.63;;;10.35;;
51838;SDS011;37886;53.174;6.368;2023-04-20T13:46:27;12.75;;;11.38;;
51838;SDS011;37886;53.174;6.368;2023-04-20T13:48:53;12.20;;;10.40;;
51838;SDS011;37886;53.174;6.368;2023-04-20T13:51:19;11.40;;;10.30;;
51838;SDS011;37886;53.174;6.368;2023-04-20T13:53:44;12.73;;;11.43;;
51838;SDS011;37886;53.174;6.368;2023-04-20T13:56:14;12.55;;;11.07;;
51838;SDS011;37886;53.174;6.368;2023-04-20T13:58:40;12.73;;;11.25;;
51838;SDS011;37886;53.174;6.368;2023-04-20T14:01:07;13.60;;;12.38;;
51838;SDS011;37886;53.174;6.368;2023-04-20T14:03:36;13.55;;;12.25;;
51838;SDS011;37886;53.174;6.368;2023-04-20T14:06:02;13.02;;;11.85;;
51838;SDS011;37886;53.174;6.368;2023-04-20T14:08:28;13.85;;;12.55;;
51838;SDS011;37886;53.174;6.368;2023-04-20T14:10:54;13.13;;;11.73;;
51838;SDS011;37886;53.174;6.368;2023-04-20T14:13:21;13.35;;;11.70;;
51838;SDS011;37886;53.174;6.368;2023-04-20T14:15:47;14.25;;;12.85;;
51838;SDS011;37886;53.174;6.368;2023-04-20T14:18:13;13.90;;;12.57;;
51838;SDS011;37886;53.174;6.368;2023-04-20T14:20:38;13.15;;;11.68;;
51838;SDS011;37886;53.174;6.368;2023-04-20T14:23:04;12.88;;;11.57;;
51838;SDS011;37886;53.174;6.368;2023-04-20T14:25:30;13.65;;;12.35;;
51838;SDS011;37886;53.174;6.368;2023-04-20T14:27:56;13.50;;;12.20;;
51838;SDS011;37886;53.174;6.368;2023-04-20T14:30:21;12.98;;;11.45;;
51838;SDS011;37886;53.174;6.368;2023-04-20T14:32:54;12.60;;;11.38;;
51838;SDS011;37886;53.174;6.368;2023-04-20T14:35:21;13.63;;;12.40;;
51838;SDS011;37886;53.174;6.368;2023-04-20T14:37:47;13.63;;;12.20;;
51838;SDS011;37886;53.174;6.368;2023-04-20T14:40:13;13.18;;;11.77;;
51838;SDS011;37886;53.174;6.368;2023-04-20T14:42:39;15.23;;;13.27;;
51838;SDS011;37886;53.174;6.368;2023-04-20T14:45:05;13.27;;;11.98;;